Time;durP1;ratioP1;P1;durP2;ratioP2;P2;SDS_P1;SDS_P2;PMS_P1;PMS_P2;Temp;Humidity;BMP_temperature;BMP_pressure;BME280_temperature;BME280_humidity;BME280_pressure;Samples;Min_cycle;Max_cycle;Signal;HPM_P1;HPM_P2
2022/09/20 00:00:49;;;;;;;10.85;3.22;;;;;;;9.92;100.00;100693.84;4979138;28;20469;-79
2022/09/20 00:03:16;;;;;;;6.13;3.15;;;;;;;9.87;100.00;100691.19;4979809;28;20106;-79
2022/09/20 00:05:44;;;;;;;4.35;3.28;;;;;;;9.83;100.00;100688.59;4980901;28;20106;-79
2022/09/20 00:08:13;;;;;;;5.57;3.53;;;;;;;9.81;100.00;100691.22;4980954;28;20414;-79
2022/09/20 00:10:39;;;;;;;7.88;3.10;;;;;;;9.83;100.00;100684.19;4978322;28;20054;-79
2022/09/20 00:13:07;;;;;;;5.05;3.28;;;;;;;9.90;100.00;100700.00;4975173;28;20043;-78
2022/09/20 00:15:33;;;;;;;5.13;2.90;;;;;;;9.92;100.00;100704.38;4972738;28;20037;-79
2022/09/20 00:17:58;;;;;;;4.13;3.15;;;;;;;9.95;100.00;100699.09;4979424;28;20031;-79
2022/09/20 00:20:24;;;;;;;6.03;3.38;;;;;;;9.89;100.00;100699.13;4972242;28;20507;-79
2022/09/20 00:22:50;;;;;;;5.95;2.88;;;;;;;9.82;100.00;100703.53;4972767;28;20453;-79
2022/09/20 00:25:16;;;;;;;7.97;3.58;;;;;;;9.79;100.00;100703.50;4980186;28;20084;-79
2022/09/20 00:27:41;;;;;;;6.30;3.15;;;;;;;9.77;100.00;100699.13;4979944;28;20042;-79
2022/09/20 00:30:08;;;;;;;5.30;3.25;;;;;;;9.72;100.00;100700.88;4980316;28;20066;-79
2022/09/20 00:32:33;;;;;;;7.10;3.70;;;;;;;9.62;100.00;100706.16;4979498;28;20038;-79
2022/09/20 00:35:08;;;;;;;4.38;3.03;;;;;;;9.54;100.00;100692.09;4980188;28;20102;-79
2022/09/20 00:37:34;;;;;;;6.75;2.97;;;;;;;9.46;100.00;100696.50;4981124;28;20046;-79
2022/09/20 00:40:04;;;;;;;4.97;3.03;;;;;;;9.41;100.00;100700.88;4981453;28;20043;-79
2022/09/20 00:42:30;;;;;;;4.03;3.50;;;;;;;9.35;100.00;100695.56;4974692;28;20048;-78
2022/09/20 00:44:56;;;;;;;5.47;3.35;;;;;;;9.30;100.00;100690.31;4981838;28;20035;-78
2022/09/20 00:47:40;;;;;;;6.60;3.38;;;;;;;9.26;100.00;100692.94;4981855;28;20023;-78
2022/09/20 00:50:27;;;;;;;8.02;3.47;;;;;;;9.18;100.00;100696.44;4975768;28;20095;-78
2022/09/20 00:53:10;;;;;;;6.65;3.25;;;;;;;9.17;100.00;100697.31;4980391;28;20035;-79
2022/09/20 00:55:41;;;;;;;5.45;3.45;;;;;;;9.13;100.00;100700.81;4982392;28;20038;-79
2022/09/20 00:58:08;;;;;;;4.97;3.55;;;;;;;9.10;100.00;100694.66;4981817;28;20096;-79
2022/09/20 01:00:33;;;;;;;5.75;3.30;;;;;;;9.10;100.00;100700.81;4981694;28;20047;-79
2022/09/20 01:03:05;;;;;;;5.90;3.53;;;;;;;9.10;100.00;100698.19;4980268;28;20046;-79
2022/09/20 01:05:30;;;;;;;6.82;3.63;;;;;;;9.08;100.00;100697.28;4974197;28;20073;-79
2022/09/20 01:07:56;;;;;;;6.25;3.47;;;;;;;9.07;100.00;100699.94;4982568;28;20401;-78
2022/09/20 01:10:22;;;;;;;4.82;3.63;;;;;;;9.04;100.00;100695.53;4980987;28;20035;-79
2022/09/20 01:12:50;;;;;;;8.75;4.10;;;;;;;9.04;100.00;100697.25;4982053;28;20089;-79
2022/09/20 01:15:17;;;;;;;8.50;4.45;;;;;;;9.00;100.00;100701.66;4983283;28;20042;-78
2022/09/20 01:17:48;;;;;;;9.48;4.28;;;;;;;9.02;100.00;100707.81;4982064;28;20050;-78
2022/09/20 01:20:21;;;;;;;8.00;4.22;;;;;;;9.01;100.00;100700.75;4983529;28;20039;-80
2022/09/20 01:23:24;;;;;;;7.22;4.40;;;;;;;9.02;100.00;100702.53;4975371;28;20498;-79
2022/09/20 01:26:23;;;;;;;11.02;4.72;;;;;;;9.05;100.00;100704.31;4973520;28;20125;-79
2022/09/20 01:28:55;;;;;;;7.93;4.25;;;;;;;9.08;100.00;100701.69;4979775;28;20065;-79
2022/09/20 01:31:39;;;;;;;13.93;4.55;;;;;;;9.13;100.00;100705.19;4984717;28;20122;-79
2022/09/20 01:34:14;;;;;;;5.90;4.93;;;;;;;9.21;100.00;100703.47;4984556;28;20046;-79
2022/09/20 01:36:50;;;;;;;7.95;4.57;;;;;;;9.25;100.00;100701.69;4978857;28;20035;-79
2022/09/20 01:39:46;;;;;;;7.60;4.70;;;;;;;9.29;100.00;100706.13;4983644;28;20097;-79
2022/09/20 01:42:13;;;;;;;5.22;4.57;;;;;;;9.26;100.00;100700.84;4976643;28;20030;-79
2022/09/20 01:45:20;;;;;;;7.95;4.25;;;;;;;9.28;100.00;100710.50;4984018;28;20050;-79
2022/09/20 01:47:48;;;;;;;7.40;4.35;;;;;;;9.27;100.00;100713.13;4917956;29;20047;-79
2022/09/20 01:50:43;;;;;;;7.57;4.22;;;;;;;9.32;100.00;100714.88;4972702;28;20047;-79
2022/09/20 01:53:46;;;;;;;9.80;4.38;;;;;;;9.32;100.00;100714.03;4980283;28;20077;-79
2022/09/20 01:56:30;;;;;;;5.47;3.63;;;;;;;9.34;100.00;100709.63;4983504;28;20050;-78
2022/09/20 01:59:36;;;;;;;6.85;4.10;;;;;;;9.28;100.00;100712.28;4982395;28;20125;-78
2022/09/20 02:02:12;;;;;;;7.72;4.07;;;;;;;9.24;100.00;100724.53;4985704;28;20038;-79
2022/09/20 02:04:57;;;;;;;7.32;4.43;;;;;;;9.24;100.00;100718.38;4986662;28;20424;-79
2022/09/20 02:07:44;;;;;;;8.55;4.55;;;;;;;9.25;100.00;100714.88;4982647;28;20484;-79
2022/09/20 02:10:46;;;;;;;6.95;4.40;;;;;;;9.26;100.00;100722.78;4989710;28;20049;-79
2022/09/20 02:13:28;;;;;;;10.48;4.25;;;;;;;9.28;100.00;100731.56;4954161;28;20314;-79
2022/09/20 02:16:09;;;;;;;7.25;4.68;;;;;;;9.34;100.00;100725.44;4976877;28;20129;-79
2022/09/20 02:19:11;;;;;;;12.93;4.30;;;;;;;9.34;100.00;100725.44;4978266;28;20397;-79
2022/09/20 02:21:46;;;;;;;7.63;4.13;;;;;;;9.42;100.00;100728.97;4982119;28;20094;-79
2022/09/20 02:24:36;;;;;;;8.25;4.13;;;;;;;9.46;100.00;100736.00;4976622;28;20062;-79
2022/09/20 02:27:10;;;;;;;10.60;4.18;;;;;;;9.52;100.00;100735.13;4980215;28;20035;-79
2022/09/20 02:29:54;;;;;;;11.43;4.53;;;;;;;9.62;100.00;100727.25;4985044;28;20430;-79
2022/09/20 02:32:28;;;;;;;8.38;4.80;;;;;;;9.71;100.00;100733.41;4982065;28;20038;-79
2022/09/20 02:35:12;;;;;;;8.52;4.30;;;;;;;9.71;100.00;100730.75;4954062;28;20036;-79
2022/09/20 02:37:48;;;;;;;12.60;4.60;;;;;;;9.77;100.00;100731.66;4983552;28;20086;-79
2022/09/20 02:40:49;;;;;;;8.40;4.88;;;;;;;9.80;100.00;100731.66;4984965;28;20116;-79
2022/09/20 02:43:32;;;;;;;14.05;5.22;;;;;;;9.81;100.00;100738.66;4975639;28;20049;-79
2022/09/20 02:46:19;;;;;;;;;;;;;;;9.84;100.00;100732.50;4974204;28;20074;-79
2022/09/20 02:49:03;;;;;;;11.52;5.80;;;;;;;9.86;100.00;100733.41;4982608;28;19965;-79
2022/09/20 02:51:39;;;;;;;15.40;6.40;;;;;;;9.89;100.00;100733.41;4991062;28;20066;-79
2022/09/20 02:54:27;;;;;;;12.85;4.82;;;;;;;9.92;100.00;100735.16;4984299;28;20043;-79
2022/09/20 02:57:14;;;;;;;11.27;5.95;;;;;;;9.84;100.00;100740.44;4983809;28;20177;-79
2022/09/20 02:59:51;;;;;;;8.35;5.18;;;;;;;9.85;100.00;100739.53;4983735;28;20498;-79
2022/09/20 03:02:35;;;;;;;8.68;5.38;;;;;;;9.83;100.00;100736.03;4975323;28;20054;-79
2022/09/20 03:05:15;;;;;;;13.45;5.50;;;;;;;9.85;100.00;100736.91;4987482;28;20280;-79
2022/09/20 03:08:03;;;;;;;14.38;6.28;;;;;;;9.87;100.00;100737.78;4986172;28;20099;-79
2022/09/20 03:11:06;;;;;;;14.38;6.15;;;;;;;9.93;100.00;100743.06;4992088;28;20073;-79
2022/09/20 03:14:10;;;;;;;10.90;6.03;;;;;;;10.00;100.00;100741.31;4887324;29;20446;-79
2022/09/20 03:17:03;;;;;;;9.13;5.97;;;;;;;10.01;100.00;100745.72;4986264;28;20109;-79
2022/09/20 03:19:56;;;;;;;9.30;6.20;;;;;;;10.03;100.00;100750.09;4957667;28;20129;-79
2022/09/20 03:22:34;;;;;;;7.80;5.68;;;;;;;10.05;100.00;100745.69;4994318;28;20039;-79
2022/09/20 03:25:34;;;;;;;13.13;6.25;;;;;;;10.08;100.00;100750.94;4984614;28;20046;-79
2022/09/20 03:28:11;;;;;;;10.98;6.50;;;;;;;10.12;100.00;100746.56;4975855;28;20382;-78
2022/09/20 03:30:47;;;;;;;9.65;5.68;;;;;;;10.21;100.00;100753.59;4985229;28;20501;-78
2022/09/20 03:33:19;;;;;;;20.20;7.38;;;;;;;10.26;100.00;100751.81;4970515;28;20039;-78
2022/09/20 03:36:07;;;;;;;12.65;7.28;;;;;;;10.24;100.00;100749.22;4976639;28;20062;-78
2022/09/20 03:39:01;;;;;;;14.02;7.90;;;;;;;10.25;100.00;100756.22;4988575;28;20035;-78
2022/09/20 03:41:44;;;;;;;14.68;8.65;;;;;;;10.23;100.00;100755.34;4972293;28;20048;-79
2022/09/20 03:44:27;;;;;;;15.93;8.00;;;;;;;10.23;100.00;100762.38;4979757;28;20073;-79
2022/09/20 03:47:09;;;;;;;11.15;8.07;;;;;;;10.20;100.00;100757.13;4975297;28;20462;-78
2022/09/20 03:49:54;;;;;;;16.23;9.13;;;;;;;10.18;100.00;100757.09;4983063;28;20119;-79
2022/09/20 03:52:49;;;;;;;13.63;8.95;;;;;;;10.14;100.00;100765.00;4992074;28;20042;-79
2022/09/20 03:55:21;;;;;;;13.32;8.68;;;;;;;10.13;100.00;100755.34;4952517;28;20039;-79
2022/09/20 03:58:02;;;;;;;18.80;9.13;;;;;;;10.09;100.00;100759.78;4977704;28;20054;-80
2022/09/20 04:00:54;;;;;;;14.75;8.57;;;;;;;10.10;100.00;100767.66;4991651;28;20615;-79
2022/09/20 04:03:29;;;;;;;13.10;8.25;;;;;;;10.07;100.00;100761.53;4979527;28;20023;-79
2022/09/20 04:06:28;;;;;;;13.63;9.48;;;;;;;10.07;100.00;100759.75;4978340;28;20037;-79
2022/09/20 04:09:38;;;;;;;14.38;8.13;;;;;;;10.06;100.00;100768.56;4983397;28;20042;-80
2022/09/20 04:12:27;;;;;;;19.40;8.98;;;;;;;10.06;100.00;100765.91;4955208;28;20055;-80
2022/09/20 04:15:04;;;;;;;13.65;9.07;;;;;;;10.02;100.00;100764.16;4969103;28;20043;-80
2022/09/20 04:17:48;;;;;;;19.25;9.90;;;;;;;10.05;100.00;100761.50;4972021;28;20066;-79
2022/09/20 04:20:48;;;;;;;12.13;9.57;;;;;;;10.04;100.00;100766.81;4978150;28;20034;-80
2022/09/20 04:23:43;;;;;;;20.23;10.02;;;;;;;10.08;100.00;100769.41;4983902;28;20042;-80
2022/09/20 04:26:08;;;;;;;19.05;9.63;;;;;;;10.05;100.00;100768.53;4978597;28;20047;-80
2022/09/20 04:28:41;;;;;;;16.63;10.13;;;;;;;10.05;100.00;100766.78;4980626;28;20044;-78
2022/09/20 04:31:26;;;;;;;18.75;9.45;;;;;;;10.07;100.00;100769.44;4967054;28;20043;-80
2022/09/20 04:33:56;;;;;;;19.02;9.63;;;;;;;10.12;100.00;100769.44;4976758;28;20038;-79
2022/09/20 04:36:56;;;;;;;17.75;9.88;;;;;;;10.11;100.00;100779.09;4968134;28;20043;-80
2022/09/20 04:39:41;;;;;;;14.45;10.45;;;;;;;10.09;100.00;100773.81;4966761;28;20046;-80
2022/09/20 04:42:34;;;;;;;14.15;9.05;;;;;;;10.09;100.00;100781.75;4961260;28;20047;-80
2022/09/20 04:45:20;;;;;;;15.43;9.23;;;;;;;10.16;100.00;100779.09;4962516;28;20027;-80
2022/09/20 04:48:10;;;;;;;15.85;10.13;;;;;;;10.15;100.00;100775.56;4965675;28;20031;-80
2022/09/20 04:51:07;;;;;;;20.30;11.05;;;;;;;10.16;100.00;100781.72;4966290;28;20121;-79
2022/09/20 04:53:45;;;;;;;19.40;10.65;;;;;;;10.19;100.00;100787.00;4983883;28;20054;-79
2022/09/20 04:56:49;;;;;;;17.80;10.55;;;;;;;10.20;100.00;100788.78;4975461;28;20046;-80
2022/09/20 04:59:44;;;;;;;17.63;10.70;;;;;;;10.17;100.00;100787.00;4905310;28;20074;-79
2022/09/20 05:02:53;;;;;;;17.05;9.85;;;;;;;10.14;100.00;100788.75;4985054;28;20039;-80
2022/09/20 05:05:40;;;;;;;20.77;12.70;;;;;;;10.15;100.00;100795.81;4978904;28;20401;-79
2022/09/20 05:08:19;;;;;;;23.88;11.57;;;;;;;10.13;100.00;100800.19;4982093;28;20054;-79
2022/09/20 05:11:03;;;;;;;17.02;11.55;;;;;;;10.17;100.00;100804.59;4960040;28;20040;-79
2022/09/20 05:13:46;;;;;;;15.93;11.50;;;;;;;10.16;100.00;100803.69;4975533;28;20050;-79
2022/09/20 05:16:26;;;;;;;24.08;11.80;;;;;;;10.13;100.00;100805.47;4969007;28;20081;-79
2022/09/20 05:19:19;;;;;;;18.92;10.52;;;;;;;10.12;100.00;100806.34;4981523;28;20045;-79
2022/09/20 05:22:05;;;;;;;14.63;9.65;;;;;;;10.12;100.00;100803.72;4980359;28;20038;-80
2022/09/20 05:24:54;;;;;;;20.50;10.88;;;;;;;10.08;100.00;100814.25;4986421;28;20098;-79
2022/09/20 05:27:44;;;;;;;17.92;10.15;;;;;;;10.15;100.00;100812.50;4978367;28;20070;-80
2022/09/20 05:30:18;;;;;;;18.75;9.05;;;;;;;10.10;100.00;100815.13;4972752;28;20042;-80
2022/09/20 05:33:04;;;;;;;18.70;11.20;;;;;;;10.06;100.00;100818.66;4969030;28;20035;-80
2022/09/20 05:36:09;;;;;;;13.68;10.45;;;;;;;10.08;100.00;100816.88;4972047;28;20042;-80
2022/09/20 05:38:41;;;;;;;19.00;9.57;;;;;;;10.17;100.00;100812.50;4976751;28;20049;-79
2022/09/20 05:41:30;;;;;;;16.08;9.75;;;;;;;10.15;100.00;100822.19;4979075;28;20828;-80
2022/09/20 05:44:33;;;;;;;17.42;9.85;;;;;;;10.15;100.00;100822.19;4978896;28;20478;-79
2022/09/20 05:47:17;;;;;;;14.70;9.68;;;;;;;10.12;100.00;100825.69;4968759;28;20043;-80
2022/09/20 05:50:14;;;;;;;19.30;10.20;;;;;;;10.13;100.00;100823.94;4944039;28;20061;-79
2022/09/20 05:52:50;;;;;;;13.23;9.00;;;;;;;10.23;100.00;100820.41;4929865;29;20482;-80
2022/09/20 05:55:28;;;;;;;19.83;12.23;;;;;;;10.22;100.00;100819.53;4925145;29;20040;-80
2022/09/20 05:58:20;;;;;;;17.98;10.32;;;;;;;10.35;100.00;100831.00;4923170;29;20043;-80
2022/09/20 06:00:54;;;;;;;17.73;9.93;;;;;;;10.36;100.00;100835.41;4918735;29;20040;-80
2022/09/20 06:03:25;;;;;;;14.27;9.35;;;;;;;10.45;100.00;100842.41;4921172;29;20087;-79
2022/09/20 06:06:12;;;;;;;23.55;9.95;;;;;;;10.43;100.00;100839.78;4919957;29;20042;-79
2022/09/20 06:08:56;;;;;;;17.45;9.82;;;;;;;10.64;100.00;100845.94;4930891;29;20052;-80
2022/09/20 06:12:04;;;;;;;13.98;9.70;;;;;;;10.75;100.00;100850.31;4940309;29;20044;-80
2022/09/20 06:14:45;;;;;;;15.65;9.55;;;;;;;10.74;100.00;100856.47;4936708;29;20047;-80
2022/09/20 06:17:22;;;;;;;13.60;9.98;;;;;;;10.71;100.00;100866.16;4919951;29;20043;-80
2022/09/20 06:20:12;;;;;;;17.35;10.73;;;;;;;10.61;100.00;100867.94;4929108;29;20071;-80
2022/09/20 06:22:47;;;;;;;16.42;11.43;;;;;;;10.53;100.00;100875.84;4930760;29;20185;-80
2022/09/20 06:25:30;;;;;;;18.85;10.73;;;;;;;10.51;100.00;100867.06;4910663;29;20048;-80
2022/09/20 06:28:05;;;;;;;16.35;10.13;;;;;;;10.52;100.00;100874.09;4930651;29;20048;-80
2022/09/20 06:30:39;;;;;;;16.63;9.60;;;;;;;10.66;100.00;100874.09;4929447;29;20435;-80
2022/09/20 06:33:07;;;;;;;13.57;9.98;;;;;;;10.71;100.00;100879.34;4931211;29;20038;-80
2022/09/20 06:41:25;;;;;;;19.83;10.60;;;;;;;10.66;100.00;100878.47;4932691;29;20082;-80
2022/09/20 06:41:59;;;;;;;15.23;9.93;;;;;;;10.83;100.00;100883.75;4928372;29;20044;-80
2022/09/20 06:44:25;;;;;;;17.88;10.98;;;;;;;10.85;100.00;100882.88;4929321;29;20044;-80
2022/09/20 06:46:54;;;;;;;19.58;8.93;;;;;;;10.93;100.00;100883.72;4929225;29;20031;-80
2022/09/20 06:49:21;;;;;;;15.82;9.70;;;;;;;11.01;100.00;100885.47;4919759;29;20044;-80
2022/09/20 06:51:48;;;;;;;18.00;9.52;;;;;;;11.21;100.00;100885.41;4930086;29;20039;-80
2022/09/20 06:54:17;;;;;;;17.73;9.45;;;;;;;11.18;100.00;100892.44;4930397;29;20430;-80
2022/09/20 06:56:43;;;;;;;16.50;10.60;;;;;;;11.24;100.00;100894.22;4928306;29;20040;-80
2022/09/20 06:59:11;;;;;;;13.50;9.50;;;;;;;11.31;99.85;100895.94;4931555;29;20451;-80
2022/09/20 07:01:37;;;;;;;13.50;8.02;;;;;;;11.34;99.34;100895.94;4927340;29;20546;-80
2022/09/20 07:04:05;;;;;;;14.38;9.23;;;;;;;11.26;99.93;100894.19;4917687;29;20035;-80
2022/09/20 07:06:30;;;;;;;14.18;9.32;;;;;;;11.22;99.38;100895.09;4936653;29;20229;-80
2022/09/20 07:08:56;;;;;;;14.13;9.32;;;;;;;11.13;99.81;100899.53;4927897;29;20135;-80
2022/09/20 07:11:22;;;;;;;16.35;9.80;;;;;;;11.03;98.85;100911.00;4942074;29;20099;-80
2022/09/20 07:13:52;;;;;;;18.00;8.85;;;;;;;11.03;99.40;100903.09;4937510;29;20066;-80
2022/09/20 07:16:18;;;;;;;13.13;9.13;;;;;;;11.07;99.22;100906.56;4940107;29;20145;-80
2022/09/20 07:18:44;;;;;;;12.98;9.15;;;;;;;11.06;100.00;100910.13;4925895;29;20075;-80
2022/09/20 07:21:15;;;;;;;15.35;9.25;;;;;;;11.28;99.54;100914.44;4926317;29;20059;-80
2022/09/20 07:23:41;;;;;;;14.82;8.90;;;;;;;11.27;99.73;100915.34;4935455;29;20071;-80
2022/09/20 07:26:22;;;;;;;15.10;8.65;;;;;;;11.50;99.89;100914.38;4942552;29;20039;-80
2022/09/20 07:28:49;;;;;;;13.13;8.88;;;;;;;11.64;96.63;100928.44;4938318;29;20036;-80
2022/09/20 07:31:18;;;;;;;13.75;8.07;;;;;;;11.75;96.58;100918.66;4937761;29;20034;-81
2022/09/20 07:33:44;;;;;;;14.30;9.77;;;;;;;11.81;95.60;100918.63;4938630;29;20480;-80
2022/09/20 07:36:11;;;;;;;14.85;8.80;;;;;;;12.00;94.08;100930.03;4937829;29;20016;-80
2022/09/20 07:38:37;;;;;;;12.32;8.13;;;;;;;12.01;94.72;100922.97;4938561;29;20044;-80
2022/09/20 07:41:02;;;;;;;13.65;8.27;;;;;;;12.01;93.98;100933.56;4934656;29;20036;-80
2022/09/20 07:43:29;;;;;;;11.85;7.85;;;;;;;11.81;94.40;100928.34;4940249;29;20414;-80
2022/09/20 07:45:56;;;;;;;14.63;9.02;;;;;;;11.65;96.28;100931.94;4934991;29;20036;-81
2022/09/20 07:48:23;;;;;;;11.13;8.18;;;;;;;11.56;98.09;100927.56;4939264;29;20051;-80
2022/09/20 07:50:53;;;;;;;15.57;7.50;;;;;;;11.49;97.56;100931.13;4921926;29;20546;-80
2022/09/20 07:53:19;;;;;;;11.80;7.53;;;;;;;11.38;98.35;100928.53;4919998;29;20024;-80
2022/09/20 07:55:59;;;;;;;13.80;8.05;;;;;;;11.30;99.55;100928.53;4929921;29;20050;-80
2022/09/20 07:58:25;;;;;;;12.57;8.93;;;;;;;11.26;100.00;100934.69;4938010;29;20036;-80
2022/09/20 08:00:55;;;;;;;17.25;9.38;;;;;;;11.15;100.00;100940.00;4927174;29;20033;-80
2022/09/20 08:03:21;;;;;;;11.05;8.57;;;;;;;11.24;100.00;100943.50;4930357;29;20058;-80
2022/09/20 08:05:46;;;;;;;13.05;8.70;;;;;;;11.31;100.00;100948.78;4931390;29;20124;-80
2022/09/20 08:08:12;;;;;;;15.23;8.13;;;;;;;11.39;100.00;100952.28;4937414;29;20118;-80
2022/09/20 08:10:39;;;;;;;15.23;8.98;;;;;;;11.31;100.00;100954.06;4927540;29;20095;-80
2022/09/20 08:13:04;;;;;;;14.73;7.95;;;;;;;11.35;100.00;100955.84;4917205;29;20040;-80
2022/09/20 08:15:30;;;;;;;19.38;9.38;;;;;;;11.28;100.00;100948.78;4929610;29;20050;-80
2022/09/20 08:17:55;;;;;;;11.63;8.25;;;;;;;11.36;100.00;100954.94;4937171;29;20119;-80
2022/09/20 08:20:21;;;;;;;11.77;9.55;;;;;;;11.34;100.00;100956.72;4914508;29;20047;-80
2022/09/20 08:22:46;;;;;;;13.13;8.68;;;;;;;11.23;100.00;100952.34;4940759;29;20044;-80
2022/09/20 08:25:11;;;;;;;18.88;10.80;;;;;;;11.28;100.00;100959.38;4935807;29;20059;-80
2022/09/20 08:27:37;;;;;;;17.00;10.82;;;;;;;11.46;100.00;100953.16;4940203;29;20043;-80
2022/09/20 08:30:02;;;;;;;15.63;10.68;;;;;;;11.52;100.00;100954.91;4924594;29;20044;-80
2022/09/20 08:32:28;;;;;;;17.13;11.38;;;;;;;11.61;100.00;100953.09;4938549;29;20043;-80
2022/09/20 08:34:53;;;;;;;14.10;10.35;;;;;;;11.93;98.83;100956.53;4923222;29;20108;-80
2022/09/20 08:37:18;;;;;;;17.73;10.10;;;;;;;11.94;96.25;100966.22;4938838;29;20515;-80
2022/09/20 08:39:44;;;;;;;13.48;9.35;;;;;;;11.88;94.85;100958.31;4939458;29;20055;-80
2022/09/20 08:42:22;;;;;;;13.25;10.30;;;;;;;11.96;94.11;100956.53;4938073;29;20044;-80
2022/09/20 08:44:57;;;;;;;17.23;10.30;;;;;;;12.00;93.99;100959.16;4939330;29;20103;-80
2022/09/20 08:47:34;;;;;;;12.95;9.20;;;;;;;12.15;93.52;100950.22;4918670;29;20088;-80
2022/09/20 08:50:03;;;;;;;16.55;11.27;;;;;;;12.49;95.03;100950.00;4940253;29;20051;-80
2022/09/20 08:52:31;;;;;;;17.70;10.65;;;;;;;12.78;92.56;100946.25;4940330;29;20502;-80
2022/09/20 08:54:58;;;;;;;13.93;8.95;;;;;;;12.94;88.46;100954.06;4942215;29;20043;-80
2022/09/20 08:57:27;;;;;;;8.73;7.85;;;;;;;13.08;88.17;100950.41;4924116;29;20040;-80
2022/09/20 08:59:53;;;;;;;17.90;9.57;;;;;;;13.12;86.38;100955.63;4923948;29;20085;-80
2022/09/20 09:02:20;;;;;;;11.40;9.45;;;;;;;12.92;87.33;100958.50;4943056;29;20486;-80
2022/09/20 09:04:47;;;;;;;15.80;10.38;;;;;;;12.97;86.74;100957.56;4937692;29;20047;-80
2022/09/20 09:07:18;;;;;;;10.93;8.73;;;;;;;12.89;86.45;100966.47;4940387;29;20028;-80
2022/09/20 09:09:46;;;;;;;10.48;8.43;;;;;;;12.98;85.52;100969.94;4925746;29;20126;-80
2022/09/20 09:12:38;;;;;;;15.60;9.27;;;;;;;12.88;84.17;100969.13;4937710;29;20040;-80
2022/09/20 09:15:28;;;;;;;10.18;8.82;;;;;;;12.93;86.32;100965.53;4949359;28;20099;-80
2022/09/20 09:17:53;;;;;;;13.90;9.48;;;;;;;12.92;88.65;100966.44;4956910;29;20462;-80
2022/09/20 09:20:22;;;;;;;8.48;7.57;;;;;;;13.00;85.81;100970.78;4936732;29;20039;-79
2022/09/20 09:22:58;;;;;;;10.00;7.22;;;;;;;12.92;85.31;100965.56;4937255;29;20055;-80
2022/09/20 09:25:33;;;;;;;10.00;7.30;;;;;;;13.12;85.20;100968.00;4926056;29;20063;-80
2022/09/20 09:28:02;;;;;;;9.63;7.63;;;;;;;13.07;83.64;100981.31;4937934;29;20047;-80
2022/09/20 09:30:31;;;;;;;10.80;7.50;;;;;;;12.82;84.15;100979.78;4942089;29;20047;-79
2022/09/20 09:33:16;;;;;;;8.05;7.25;;;;;;;12.80;86.78;100976.25;4940423;29;20039;-79
2022/09/20 09:35:42;;;;;;;7.35;6.45;;;;;;;12.72;84.82;100978.97;4917892;29;20039;-80
2022/09/20 09:38:17;;;;;;;7.50;6.63;;;;;;;12.84;86.79;100978.00;4939488;29;20039;-80
2022/09/20 09:40:55;;;;;;;9.93;8.40;;;;;;;12.95;85.25;100984.06;4921505;29;20048;-79
2022/09/20 09:43:28;;;;;;;7.85;7.05;;;;;;;12.88;85.84;100983.22;4937691;29;20104;-79
2022/09/20 09:45:55;;;;;;;8.30;6.85;;;;;;;12.85;84.54;100985.03;4941152;29;20063;-79
2022/09/20 09:48:27;;;;;;;8.32;6.47;;;;;;;12.53;84.83;100980.88;4944295;29;20032;-79
2022/09/20 09:51:16;;;;;;;8.50;7.10;;;;;;;12.50;85.73;100980.91;4942921;29;20043;-79
2022/09/20 09:53:43;;;;;;;7.80;6.97;;;;;;;12.50;85.88;100996.78;4938309;29;20054;-79
2022/09/20 09:56:28;;;;;;;7.85;7.13;;;;;;;12.39;85.73;100985.38;4942607;29;20439;-79
2022/09/20 09:59:20;;;;;;;10.63;7.30;;;;;;;12.27;85.58;100984.56;4941632;29;20040;-79
2022/09/20 10:01:55;;;;;;;;;;;;;;;12.27;83.78;100987.22;4928813;29;20036;-79
2022/09/20 10:04:32;;;;;;;9.98;7.50;;;;;;;12.42;83.41;101002.13;4933367;29;19915;-78
2022/09/20 10:07:27;;;;;;;10.82;8.38;;;;;;;12.72;84.31;100986.91;4936328;29;20027;-78
2022/09/20 10:10:22;;;;;;;10.00;8.43;;;;;;;13.35;80.61;100981.06;4928589;29;20074;-79
2022/09/20 10:13:02;;;;;;;13.57;7.68;;;;;;;13.48;78.19;100982.69;4927639;29;20137;-78
2022/09/20 10:16:19;;;;;;;10.18;9.13;;;;;;;13.71;78.69;100986.88;4932989;29;20050;-78
2022/09/20 10:18:55;;;;;;;10.68;8.77;;;;;;;13.85;78.93;100999.97;4939613;29;20123;-78
2022/09/20 10:21:40;;;;;;;12.27;10.73;;;;;;;13.66;77.00;100988.69;4918555;29;20040;-78
2022/09/20 10:24:29;;;;;;;10.95;8.13;;;;;;;13.68;78.22;100993.09;4929489;29;20067;-78
2022/09/20 10:27:21;;;;;;;13.90;8.95;;;;;;;13.71;79.57;100994.84;4921486;29;20055;-77
2022/09/20 10:30:07;;;;;;;9.82;8.57;;;;;;;13.63;77.05;100989.63;4937111;29;20040;-78
2022/09/20 10:33:08;;;;;;;11.63;10.40;;;;;;;13.65;77.41;100989.56;4941042;29;20076;-78
2022/09/20 10:36:16;;;;;;;10.30;7.82;;;;;;;13.89;75.50;101005.22;4930019;29;20040;-78
2022/09/20 10:38:55;;;;;;;8.95;8.05;;;;;;;13.77;73.54;100990.31;4930756;29;20055;-78
2022/09/20 10:45:38;;;;;;;10.65;7.47;;;;;;;14.56;74.65;100987.50;4932636;29;20036;-79
2022/09/20 10:48:11;;;;;;;9.13;7.68;;;;;;;14.90;71.51;100987.84;4944607;29;20076;-78
2022/09/20 10:51:01;;;;;;;7.97;7.38;;;;;;;15.18;69.58;100983.84;4941261;29;20036;-78
2022/09/20 10:53:40;;;;;;;7.40;6.63;;;;;;;15.01;69.92;100981.47;4941183;29;20052;-78
2022/09/20 10:56:18;;;;;;;7.63;5.82;;;;;;;14.83;71.75;100993.31;4940306;29;20031;-78
2022/09/20 10:59:01;;;;;;;7.07;6.38;;;;;;;14.65;70.89;101002.44;4938394;29;20032;-79
2022/09/20 11:01:38;;;;;;;8.80;6.82;;;;;;;14.82;70.03;101004.81;4943455;29;20070;-79
2022/09/20 11:04:29;;;;;;;8.63;7.45;;;;;;;14.93;69.01;100991.34;4942129;29;20050;-79
2022/09/20 11:07:28;;;;;;;8.35;6.43;;;;;;;14.94;69.56;100998.44;4944804;29;20031;-79
2022/09/20 11:10:11;;;;;;;9.45;6.15;;;;;;;14.79;69.73;100989.81;4925316;29;20056;-79
2022/09/20 11:13:41;;;;;;;10.35;6.55;;;;;;;14.56;70.29;100986.63;4941444;29;20040;-79
2022/09/20 11:16:23;;;;;;;6.70;5.75;;;;;;;14.88;70.22;100991.41;4922240;29;20054;-79
2022/09/20 11:19:01;;;;;;;6.60;6.00;;;;;;;15.05;67.48;100991.16;4939661;29;20072;-79
2022/09/20 11:21:37;;;;;;;7.07;5.22;;;;;;;15.03;66.01;100982.31;4936462;29;20078;-79
2022/09/20 11:24:18;;;;;;;7.82;6.05;;;;;;;15.06;65.97;100977.84;4941222;29;20047;-79
2022/09/20 11:26:50;;;;;;;8.05;7.25;;;;;;;15.15;69.81;100976.81;4942897;29;20033;-78
2022/09/20 11:29:28;;;;;;;7.93;7.28;;;;;;;15.66;67.60;100973.16;4943300;29;20091;-79
2022/09/20 11:32:01;;;;;;;7.82;7.10;;;;;;;16.17;66.98;100975.69;4939443;29;20060;-79
2022/09/20 11:34:30;;;;;;;9.13;8.20;;;;;;;16.78;62.30;100978.72;4940180;29;20050;-79
2022/09/20 11:36:59;;;;;;;7.70;6.95;;;;;;;16.88;62.28;100969.59;4940336;29;20117;-78
2022/09/20 11:39:39;;;;;;;9.25;8.27;;;;;;;17.05;61.71;100967.34;4943577;29;20036;-79
2022/09/20 11:42:05;;;;;;;9.88;7.32;;;;;;;17.02;60.74;100967.44;4933948;29;20103;-78
2022/09/20 11:44:32;;;;;;;8.82;7.93;;;;;;;16.42;61.38;100970.66;4926559;29;20050;-79
2022/09/20 11:47:04;;;;;;;6.95;5.80;;;;;;;16.14;63.50;100963.31;4939764;29;20028;-78
2022/09/20 11:49:38;;;;;;;;;;;;;;;16.11;64.31;100960.72;4921607;29;20047;-79
2022/09/20 11:52:28;;;;;;;8.40;7.60;;;;;;;16.65;62.89;100963.00;4940120;29;19930;-79
2022/09/20 11:55:11;;;;;;;8.40;7.57;;;;;;;16.58;62.27;100958.75;4931399;29;20043;-79
2022/09/20 11:57:37;;;;;;;7.75;6.10;;;;;;;16.16;63.72;100966.78;4929861;29;20040;-79
2022/09/20 12:00:06;;;;;;;11.65;6.38;;;;;;;16.02;63.94;100979.56;4937992;29;20050;-78
2022/09/20 12:02:51;;;;;;;9.23;7.60;;;;;;;16.26;62.87;100970.13;4937705;29;20095;-78
2022/09/20 12:05:32;;;;;;;8.82;7.93;;;;;;;16.97;60.40;100968.47;4944698;29;20055;-79
2022/09/20 12:08:00;;;;;;;6.97;6.28;;;;;;;17.19;60.53;100947.47;4942014;29;20046;-78
2022/09/20 12:10:34;;;;;;;12.73;10.18;;;;;;;17.27;58.81;100959.69;4918209;29;20059;-79
2022/09/20 12:13:18;;;;;;;8.77;7.93;;;;;;;17.44;57.69;100951.19;4937561;29;20036;-79
2022/09/20 12:15:43;;;;;;;6.22;5.63;;;;;;;17.37;57.14;100949.63;4940591;29;20123;-78